createdAt,value
2019-05-30T00:00:17.849Z,94.27
2019-05-30T00:01:15.976Z,94.84
2019-05-30T00:02:16.027Z,94.84
2019-05-30T00:03:15.978Z,94.46
2019-05-30T00:04:15.947Z,95.51
2019-05-30T00:05:15.953Z,94.46
2019-05-30T00:06:15.952Z,93.70
2019-05-30T00:07:15.931Z,93.50
2019-05-30T00:08:15.930Z,93.31
2019-05-30T00:09:15.927Z,92.83
2019-05-30T00:10:15.940Z,93.21
2019-05-30T00:11:15.904Z,93.31
2019-05-30T00:12:15.908Z,93.12
2019-05-30T00:13:15.899Z,93.50
2019-05-30T00:14:15.892Z,94.27
2019-05-30T00:15:15.889Z,93.60
2019-05-30T00:16:15.884Z,93.50
2019-05-30T00:17:15.871Z,93.21
2019-05-30T00:18:15.874Z,93.60
2019-05-30T00:19:15.855Z,93.70
2019-05-30T00:20:15.860Z,93.50
2019-05-30T00:21:15.849Z,93.31
2019-05-30T00:22:15.845Z,93.12
2019-05-30T00:23:15.847Z,92.83
2019-05-30T00:24:15.823Z,92.45
2019-05-30T00:25:15.822Z,93.12
2019-05-30T00:26:15.833Z,92.74
2019-05-30T00:27:15.809Z,92.36
2019-05-30T00:28:15.805Z,92.93
2019-05-30T00:29:15.791Z,92.36
2019-05-30T00:30:24.435Z,92.45
2019-05-30T00:31:15.776Z,92.07
2019-05-30T00:32:15.785Z,92.45
2019-05-30T00:33:15.766Z,92.64
2019-05-30T00:34:15.774Z,92.40
2019-05-30T00:35:15.763Z,92.11
2019-05-30T00:36:15.759Z,91.97
2019-05-30T00:37:15.745Z,91.54
2019-05-30T00:38:15.735Z,91.64
2019-05-30T00:39:15.743Z,91.06
2019-05-30T00:40:15.725Z,90.88
2019-05-30T00:41:15.712Z,90.88
2019-05-30T00:42:15.720Z,90.88
2019-05-30T00:43:15.715Z,90.39
2019-05-30T00:44:15.711Z,90.49
2019-05-30T00:45:20.891Z,89.92
2019-05-30T00:46:15.697Z,89.63
2019-05-30T00:47:15.680Z,89.92
2019-05-30T00:48:15.676Z,90.20
2019-05-30T00:49:15.675Z,90.01
2019-05-30T00:50:15.663Z,89.82
2019-05-30T00:51:15.656Z,89.63
2019-05-30T00:52:15.651Z,90.49
2019-05-30T00:53:15.647Z,90.11
2019-05-30T00:54:15.641Z,89.73
2019-05-30T00:55:15.646Z,89.53
2019-05-30T00:56:15.626Z,89.25
2019-05-30T00:57:15.626Z,90.01
2019-05-30T00:58:15.606Z,89.34
2019-05-30T00:59:15.611Z,89.15
2019-05-30T01:00:15.607Z,88.87
2019-05-30T01:01:15.602Z,88.39
2019-05-30T01:02:15.598Z,88.87
2019-05-30T01:03:15.589Z,88.48
2019-05-30T01:04:15.591Z,88.53
2019-05-30T01:05:15.577Z,88.24
2019-05-30T01:06:15.573Z,88.48
2019-05-30T01:07:15.563Z,88.81
2019-05-30T01:08:15.564Z,89.10
2019-05-30T01:09:15.550Z,88.62
2019-05-30T01:10:15.554Z,88.53
2019-05-30T01:11:15.538Z,88.53
2019-05-30T01:12:15.533Z,88.53
2019-05-30T01:13:15.527Z,87.76
2019-05-30T01:14:15.534Z,87.48
2019-05-30T01:15:15.511Z,87.09
2019-05-30T01:16:15.508Z,87.29
2019-05-30T01:17:15.511Z,86.90
2019-05-30T01:18:15.507Z,87.95
2019-05-30T01:19:15.494Z,87.48
2019-05-30T01:20:15.485Z,87.00
2019-05-30T01:21:15.477Z,86.61
2019-05-30T01:22:15.493Z,86.80
2019-05-30T01:23:15.477Z,86.43
2019-05-30T01:24:15.460Z,86.71
2019-05-30T01:25:15.451Z,87.09
2019-05-30T01:26:15.454Z,87.19
2019-05-30T01:27:15.448Z,87.09
2019-05-30T01:28:15.434Z,86.61
2019-05-30T01:29:15.428Z,86.23
2019-05-30T01:30:15.431Z,86.43
2019-05-30T01:31:15.420Z,86.71
2019-05-30T01:32:15.412Z,87.19
2019-05-30T01:33:15.436Z,87.19
2019-05-30T01:34:15.403Z,86.61
2019-05-30T01:35:15.393Z,86.43
2019-05-30T01:36:15.391Z,86.80
2019-05-30T01:37:15.402Z,87.00
2019-05-30T01:38:15.387Z,87.29
2019-05-30T01:39:15.367Z,86.80
2019-05-30T01:40:15.385Z,86.52
2019-05-30T01:41:17.533Z,86.80
2019-05-30T01:42:15.358Z,87.57
2019-05-30T01:43:15.363Z,87.76
2019-05-30T01:44:15.345Z,87.86
2019-05-30T01:45:15.339Z,87.95
2019-05-30T01:46:15.336Z,87.86
2019-05-30T01:47:15.324Z,87.57
2019-05-30T01:48:15.316Z,87.95
2019-05-30T01:49:15.313Z,87.57
2019-05-30T01:50:15.307Z,88.34
2019-05-30T01:51:15.327Z,87.95
2019-05-30T01:52:15.290Z,88.43
2019-05-30T01:53:15.291Z,88.91
2019-05-30T01:54:15.276Z,89.29
2019-05-30T01:55:15.285Z,88.68
2019-05-30T01:56:15.274Z,88.87
2019-05-30T01:57:15.270Z,88.96
2019-05-30T01:58:15.277Z,88.96
2019-05-30T01:59:15.258Z,89.06
2019-05-30T02:00:20.716Z,89.20
2019-05-30T02:01:24.282Z,88.05
2019-05-30T02:02:15.229Z,88.72
2019-05-30T02:03:15.232Z,89.25
2019-05-30T02:04:15.232Z,88.91
2019-05-30T02:05:15.222Z,88.15
2019-05-30T02:06:15.243Z,88.53
2019-05-30T02:07:15.214Z,88.24
2019-05-30T02:08:15.203Z,87.76
2019-05-30T02:09:15.189Z,87.86
2019-05-30T02:10:15.195Z,87.38
2019-05-30T02:11:15.179Z,87.57
2019-05-30T02:12:15.187Z,88.53
2019-05-30T02:13:15.172Z,87.95
2019-05-30T02:14:15.183Z,87.48
2019-05-30T02:15:15.167Z,87.76
2019-05-30T02:16:15.156Z,87.57
2019-05-30T02:17:15.140Z,87.48
2019-05-30T02:18:15.142Z,86.80
2019-05-30T02:19:15.155Z,87.66
2019-05-30T02:20:15.125Z,87.57
2019-05-30T02:21:15.117Z,87.57
2019-05-30T02:22:15.126Z,87.29
2019-05-30T02:23:15.113Z,87.23
2019-05-30T02:24:15.111Z,86.90
2019-05-30T02:25:15.103Z,86.80
2019-05-30T02:26:15.099Z,86.85
2019-05-30T02:27:15.100Z,86.94
2019-05-30T02:28:15.079Z,87.14
2019-05-30T02:29:15.081Z,87.33
2019-05-30T02:30:15.265Z,87.62
2019-05-30T02:31:15.095Z,87.90
2019-05-30T02:32:15.069Z,87.14
2019-05-30T02:33:15.062Z,85.89
2019-05-30T02:34:15.045Z,86.94
2019-05-30T02:35:15.071Z,86.57
2019-05-30T02:36:15.044Z,85.89
2019-05-30T02:37:15.033Z,86.47
2019-05-30T02:38:15.035Z,86.94
2019-05-30T02:39:15.025Z,86.76
2019-05-30T02:40:15.492Z,86.08
2019-05-30T02:41:15.018Z,85.99
2019-05-30T02:42:15.015Z,86.66
2019-05-30T02:43:15.012Z,86.47
2019-05-30T02:44:14.999Z,86.28
2019-05-30T02:45:14.991Z,86.47
2019-05-30T02:46:14.995Z,86.28
2019-05-30T02:47:14.997Z,86.28
2019-05-30T02:48:14.970Z,85.80
2019-05-30T02:49:14.977Z,86.57
2019-05-30T02:50:14.978Z,86.57
2019-05-30T02:51:14.972Z,86.28
2019-05-30T02:52:14.968Z,86.28
2019-05-30T02:53:14.962Z,86.57
2019-05-30T02:54:14.943Z,86.28
2019-05-30T02:55:14.938Z,86.57
2019-05-30T02:56:14.933Z,86.18
2019-05-30T02:57:14.949Z,86.18
2019-05-30T02:58:14.921Z,86.28
2019-05-30T02:59:14.922Z,86.66
2019-05-30T03:00:17.651Z,86.85
2019-05-30T03:01:14.955Z,85.80
2019-05-30T03:02:17.267Z,85.22
2019-05-30T03:03:15.047Z,85.22
2019-05-30T03:04:14.890Z,85.22
2019-05-30T03:05:15.398Z,85.41
2019-05-30T03:06:14.889Z,85.41
2019-05-30T03:07:14.887Z,85.41
2019-05-30T03:08:14.903Z,85.22
2019-05-30T03:09:14.860Z,85.41
2019-05-30T03:10:15.481Z,84.84
2019-05-30T03:11:15.663Z,85.80
2019-05-30T03:12:14.857Z,85.22
2019-05-30T03:13:14.857Z,86.13
2019-05-30T03:14:19.064Z,86.22
2019-05-30T03:15:15.721Z,86.37
2019-05-30T03:16:14.830Z,85.75
2019-05-30T03:17:14.906Z,85.51
2019-05-30T03:18:15.306Z,85.22
2019-05-30T03:19:14.806Z,85.22
2019-05-30T03:20:22.602Z,85.32
2019-05-30T03:21:15.542Z,85.41
2019-05-30T03:22:14.798Z,85.27
2019-05-30T03:23:15.160Z,85.55
2019-05-30T03:24:14.785Z,85.55
2019-05-30T03:25:16.204Z,85.46
2019-05-30T03:26:16.085Z,85.51
2019-05-30T03:27:14.791Z,84.94
2019-05-30T03:28:14.779Z,85.03
2019-05-30T03:29:14.770Z,85.41
2019-05-30T03:30:25.188Z,85.03
2019-05-30T03:31:26.734Z,85.46
2019-05-30T03:32:59.520Z,84.98
2019-05-30T03:33:32.968Z,85.46
2019-05-30T03:34:26.338Z,85.65
2019-05-30T03:35:26.876Z,85.46
2019-05-30T03:36:27.613Z,85.55
2019-05-30T03:37:22.582Z,84.59
2019-05-30T03:38:15.573Z,85.27
2019-05-30T03:39:15.454Z,84.75
2019-05-30T03:40:14.699Z,85.13
2019-05-30T03:41:14.701Z,85.32
2019-05-30T03:42:15.953Z,85.17
2019-05-30T03:43:15.939Z,85.22
2019-05-30T03:44:15.674Z,85.41
2019-05-30T03:45:16.612Z,85.27
2019-05-30T03:46:15.085Z,85.27
2019-05-30T03:47:15.588Z,84.75
2019-05-30T03:48:16.274Z,85.36
2019-05-30T03:49:14.977Z,85.46
2019-05-30T03:50:17.439Z,85.36
2019-05-30T03:51:15.118Z,85.03
2019-05-30T03:52:17.046Z,85.65
2019-05-30T03:53:16.238Z,85.08
2019-05-30T03:54:16.094Z,85.75
2019-05-30T03:55:16.522Z,85.94
2019-05-30T03:56:16.012Z,86.70
2019-05-30T03:57:15.651Z,86.80
2019-05-30T03:58:16.427Z,85.55
2019-05-30T03:59:14.862Z,86.13
2019-05-30T04:00:16.121Z,85.46
2019-05-30T04:01:14.956Z,86.22
2019-05-30T04:02:15.780Z,86.13
2019-05-30T04:03:15.613Z,87.27
2019-05-30T04:04:16.604Z,86.70
2019-05-30T04:05:16.039Z,85.84
2019-05-30T04:06:16.482Z,86.04
2019-05-30T04:07:15.892Z,85.84
2019-05-30T04:08:16.147Z,86.41
2019-05-30T04:09:21.413Z,85.75
2019-05-30T04:10:15.787Z,85.08
2019-05-30T04:11:16.581Z,85.27
2019-05-30T04:12:16.516Z,85.08
2019-05-30T04:13:16.590Z,85.36
2019-05-30T04:14:15.733Z,85.46
2019-05-30T04:15:16.631Z,85.55
2019-05-30T04:16:15.875Z,85.84
2019-05-30T04:17:16.045Z,85.27
2019-05-30T04:18:16.318Z,85.27
2019-05-30T04:19:15.542Z,85.46
2019-05-30T04:20:17.822Z,85.46
2019-05-30T04:21:16.679Z,85.17
2019-05-30T04:22:15.498Z,84.69
2019-05-30T04:23:14.965Z,84.59
2019-05-30T04:24:16.091Z,85.27
2019-05-30T04:25:14.480Z,85.08
2019-05-30T04:26:15.933Z,84.59
2019-05-30T04:27:16.109Z,85.46
2019-05-30T04:28:16.093Z,85.27
2019-05-30T04:29:16.275Z,85.84
2019-05-30T04:30:16.180Z,85.46
2019-05-30T04:31:14.617Z,85.36
2019-05-30T04:32:14.500Z,84.59
2019-05-30T04:33:26.444Z,85.46
2019-05-30T04:34:14.869Z,85.50
2019-05-30T04:35:14.718Z,85.46
2019-05-30T04:36:14.612Z,84.74
2019-05-30T04:37:14.909Z,84.79
2019-05-30T04:38:14.740Z,85.12
2019-05-30T04:39:15.140Z,85.60
2019-05-30T04:40:15.439Z,85.46
2019-05-30T04:41:15.953Z,85.36
2019-05-30T04:42:16.238Z,85.84
2019-05-30T04:43:15.513Z,85.41
2019-05-30T04:44:16.070Z,85.50
2019-05-30T04:45:15.981Z,85.31
2019-05-30T04:46:16.450Z,86.55
2019-05-30T04:47:15.984Z,88.09
2019-05-30T04:48:15.886Z,88.66
2019-05-30T04:49:14.956Z,89.33
2019-05-30T04:50:14.812Z,89.52
2019-05-30T04:51:14.949Z,89.81
2019-05-30T04:52:19.859Z,89.52
2019-05-30T04:53:16.194Z,89.43
2019-05-30T04:54:15.129Z,88.85
2019-05-30T04:55:16.031Z,89.14
2019-05-30T04:56:14.712Z,88.76
2019-05-30T04:57:14.912Z,89.04
2019-05-30T04:58:15.427Z,89.52
2019-05-30T04:59:15.253Z,90.77
2019-05-30T05:00:15.219Z,90.00
2019-05-30T05:01:15.426Z,89.81
2019-05-30T05:02:16.381Z,89.81
2019-05-30T05:03:15.491Z,90.96
2019-05-30T05:04:15.477Z,90.96
2019-05-30T05:05:19.986Z,90.86
2019-05-30T05:06:15.687Z,90.77
2019-05-30T05:07:15.566Z,90.86
2019-05-30T05:08:15.718Z,90.77
2019-05-30T05:09:15.847Z,89.90
2019-05-30T05:10:14.255Z,89.43
2019-05-30T05:11:17.253Z,89.52
2019-05-30T05:12:14.258Z,89.62
2019-05-30T05:13:14.241Z,89.33
2019-05-30T05:14:14.372Z,89.81
2019-05-30T05:15:14.408Z,90.09
2019-05-30T05:16:25.918Z,90.19
2019-05-30T05:17:14.683Z,90.19
2019-05-30T05:18:14.950Z,91.05
2019-05-30T05:19:14.912Z,90.86
2019-05-30T05:20:15.240Z,90.39
2019-05-30T05:21:14.704Z,89.90
2019-05-30T05:22:14.826Z,89.81
2019-05-30T05:23:15.079Z,89.62
2019-05-30T05:24:15.328Z,89.04
2019-05-30T05:25:15.321Z,89.52
2019-05-30T05:26:15.375Z,88.95
2019-05-30T05:27:15.446Z,89.33
2019-05-30T05:28:14.187Z,88.85
2019-05-30T05:29:14.181Z,88.90
2019-05-30T05:30:14.174Z,88.95
2019-05-30T05:31:14.484Z,89.33
2019-05-30T05:32:14.174Z,89.86
2019-05-30T05:33:14.540Z,90.62
2019-05-30T05:34:14.456Z,91.10
2019-05-30T05:35:14.791Z,90.39
2019-05-30T05:36:14.847Z,90.62
2019-05-30T05:37:14.910Z,89.66
2019-05-30T05:38:14.140Z,89.37
2019-05-30T05:39:14.136Z,89.47
2019-05-30T05:40:14.150Z,89.76
2019-05-30T05:41:14.119Z,89.09
2019-05-30T05:42:14.118Z,89.28
2019-05-30T05:43:14.121Z,90.62
2019-05-30T05:44:14.104Z,91.10
2019-05-30T05:45:14.127Z,91.10
2019-05-30T05:46:14.099Z,90.91
2019-05-30T05:47:14.106Z,91.10
2019-05-30T05:48:14.104Z,92.06
2019-05-30T05:49:14.088Z,92.63
2019-05-30T05:50:14.087Z,91.86
2019-05-30T05:51:14.090Z,90.43
2019-05-30T05:52:14.083Z,89.95
2019-05-30T05:53:14.088Z,89.47
2019-05-30T05:54:14.082Z,89.66
2019-05-30T05:55:14.068Z,89.76
2019-05-30T05:56:14.060Z,90.81
2019-05-30T05:57:14.058Z,91.86
2019-05-30T05:58:14.052Z,92.25
2019-05-30T05:59:14.069Z,91.29
2019-05-30T06:00:14.049Z,89.66
2019-05-30T06:01:14.042Z,89.18
2019-05-30T06:02:14.185Z,88.61
2019-05-30T06:03:14.033Z,87.55
2019-05-30T06:04:14.044Z,87.94
2019-05-30T06:05:14.034Z,88.23
2019-05-30T06:06:14.039Z,88.90
2019-05-30T06:07:14.033Z,89.57
2019-05-30T06:08:14.017Z,89.86
2019-05-30T06:09:14.014Z,88.61
2019-05-30T06:10:14.006Z,88.23
2019-05-30T06:11:14.002Z,88.90
2019-05-30T06:12:14.002Z,88.32
2019-05-30T06:13:13.987Z,88.90
2019-05-30T06:14:13.990Z,88.70
2019-05-30T06:15:14.009Z,89.37
2019-05-30T06:16:13.991Z,88.61
2019-05-30T06:17:13.982Z,88.51
2019-05-30T06:18:13.979Z,88.51
2019-05-30T06:19:13.975Z,89.04
2019-05-30T06:20:13.968Z,88.75
2019-05-30T06:21:13.965Z,89.23
2019-05-30T06:22:13.970Z,89.71
2019-05-30T06:23:13.955Z,89.51
2019-05-30T06:24:13.968Z,89.51
2019-05-30T06:25:13.955Z,88.75
2019-05-30T06:26:13.948Z,88.65
2019-05-30T06:27:13.940Z,88.75
2019-05-30T06:28:13.939Z,88.75
2019-05-30T06:29:13.935Z,89.32
2019-05-30T06:30:13.937Z,89.61
2019-05-30T06:31:13.927Z,89.42
2019-05-30T06:32:13.931Z,89.80
2019-05-30T06:33:13.937Z,88.75
2019-05-30T06:34:28.280Z,89.23
2019-05-30T06:35:13.910Z,89.18
2019-05-30T06:36:13.905Z,88.79
2019-05-30T06:37:13.897Z,88.89
2019-05-30T06:38:13.900Z,88.22
2019-05-30T06:39:13.900Z,88.79
2019-05-30T06:40:13.899Z,88.41
2019-05-30T06:41:13.894Z,88.51
2019-05-30T06:42:13.893Z,87.93
2019-05-30T06:43:13.877Z,87.84
2019-05-30T06:44:13.901Z,88.22
2019-05-30T06:45:13.884Z,88.22
2019-05-30T06:46:13.875Z,88.02
2019-05-30T06:47:13.874Z,88.31
2019-05-30T06:48:13.869Z,89.47
2019-05-30T06:49:15.044Z,88.60
2019-05-30T06:50:13.973Z,88.02
2019-05-30T06:51:14.684Z,87.45
2019-05-30T06:52:13.859Z,87.64
2019-05-30T06:53:13.853Z,87.16
2019-05-30T06:54:13.851Z,86.97
2019-05-30T06:55:13.852Z,87.35
2019-05-30T06:56:13.840Z,86.97
2019-05-30T06:57:13.849Z,86.78
2019-05-30T06:58:13.834Z,86.78
2019-05-30T06:59:13.838Z,86.82
2019-05-30T07:00:13.827Z,87.30
2019-05-30T07:01:13.835Z,87.64
2019-05-30T07:02:13.843Z,88.31
2019-05-30T07:03:13.876Z,87.88
2019-05-30T07:04:14.295Z,87.35
2019-05-30T07:05:14.444Z,87.40
2019-05-30T07:06:14.296Z,86.63
2019-05-30T07:07:13.848Z,86.34
2019-05-30T07:08:13.819Z,86.92
2019-05-30T07:09:13.818Z,87.98
2019-05-30T07:10:13.810Z,88.74
2019-05-30T07:11:13.798Z,88.65
2019-05-30T07:12:13.789Z,88.84
2019-05-30T07:13:13.789Z,86.25
2019-05-30T07:14:13.807Z,86.72
2019-05-30T07:15:13.779Z,87.11
2019-05-30T07:16:13.791Z,86.72
2019-05-30T07:17:13.780Z,87.01
2019-05-30T07:18:13.780Z,87.11
2019-05-30T07:19:13.769Z,87.88
2019-05-30T07:20:13.799Z,87.30
2019-05-30T07:21:13.781Z,86.25
2019-05-30T07:22:13.770Z,85.48
2019-05-30T07:23:13.805Z,86.34
2019-05-30T07:24:14.634Z,85.77
2019-05-30T07:25:19.880Z,86.54
2019-05-30T07:26:23.816Z,86.72
2019-05-30T07:27:17.714Z,87.59
2019-05-30T07:28:17.745Z,87.59
2019-05-30T07:29:13.797Z,87.88
2019-05-30T07:30:13.757Z,87.30
2019-05-30T07:31:13.743Z,86.92
2019-05-30T07:32:19.976Z,85.67
2019-05-30T07:33:17.521Z,84.91
2019-05-30T07:34:13.733Z,85.00
2019-05-30T07:35:28.021Z,85.42
2019-05-30T07:36:19.822Z,85.00
2019-05-30T07:37:13.731Z,84.56
2019-05-30T07:38:13.742Z,84.37
2019-05-30T07:39:13.724Z,84.27
2019-05-30T07:40:13.720Z,83.80
2019-05-30T07:41:13.728Z,83.31
2019-05-30T07:42:13.706Z,83.03
2019-05-30T07:43:13.717Z,83.07
2019-05-30T07:44:20.433Z,82.40
2019-05-30T07:45:13.727Z,82.20
2019-05-30T07:46:18.511Z,81.10
2019-05-30T07:47:13.700Z,81.43
2019-05-30T07:48:13.729Z,80.86
2019-05-30T07:49:19.879Z,81.34
2019-05-30T07:50:13.699Z,81.15
2019-05-30T07:51:13.720Z,81.24
2019-05-30T07:52:13.693Z,80.19
2019-05-30T07:53:13.697Z,80.76
2019-05-30T07:54:13.706Z,80.80
2019-05-30T07:55:13.703Z,80.42
2019-05-30T07:56:13.685Z,80.22
2019-05-30T07:57:13.719Z,80.61
2019-05-30T07:58:13.689Z,80.55
2019-05-30T07:59:13.687Z,80.84
2019-05-30T08:00:13.681Z,78.92
2019-05-30T08:01:21.497Z,78.63
2019-05-30T08:02:19.880Z,78.06
2019-05-30T08:03:13.676Z,77.48
2019-05-30T08:04:14.623Z,77.86
2019-05-30T08:05:24.337Z,77.06
2019-05-30T08:06:39.201Z,77.19
2019-05-30T08:07:22.648Z,77.29
2019-05-30T08:08:22.820Z,77.76
2019-05-30T08:09:19.021Z,77.86
2019-05-30T08:10:13.670Z,78.15
2019-05-30T08:11:13.675Z,78.83
2019-05-30T08:12:13.660Z,77.96
2019-05-30T08:13:13.669Z,77.76
2019-05-30T08:14:13.689Z,77.86
2019-05-30T08:15:13.682Z,77.48
2019-05-30T08:16:13.673Z,77.76
2019-05-30T08:17:13.658Z,78.59
2019-05-30T08:18:13.652Z,77.83
2019-05-30T08:19:13.657Z,78.02
2019-05-30T08:20:13.658Z,78.11
2019-05-30T08:21:13.652Z,77.92
2019-05-30T08:22:13.668Z,77.83
2019-05-30T08:23:13.655Z,78.02
2019-05-30T08:24:13.648Z,78.11
2019-05-30T08:25:13.652Z,78.02
2019-05-30T08:26:13.656Z,79.02
2019-05-30T08:27:13.645Z,79.69
2019-05-30T08:28:13.655Z,78.83
2019-05-30T08:29:14.630Z,79.98
2019-05-30T08:30:13.664Z,80.46
2019-05-30T08:31:15.434Z,79.30
2019-05-30T08:32:13.645Z,79.11
2019-05-30T08:33:13.645Z,80.07
2019-05-30T08:34:13.644Z,81.13
2019-05-30T08:35:13.645Z,80.55
2019-05-30T08:36:13.645Z,80.69
2019-05-30T08:37:13.641Z,81.71
2019-05-30T08:38:13.651Z,82.23
2019-05-30T08:39:13.671Z,82.81
2019-05-30T08:40:13.638Z,80.79
2019-05-30T08:41:13.643Z,80.98
2019-05-30T08:42:13.643Z,82.52
2019-05-30T08:43:13.640Z,82.23
2019-05-30T08:44:13.647Z,79.92
2019-05-30T08:45:13.632Z,79.82
2019-05-30T08:46:13.637Z,79.05
2019-05-30T08:47:13.636Z,79.48
2019-05-30T08:48:13.629Z,79.73
2019-05-30T08:49:13.652Z,78.81
2019-05-30T08:50:13.645Z,78.03
2019-05-30T08:51:13.651Z,78.52
2019-05-30T08:52:13.643Z,78.52
2019-05-30T08:53:13.635Z,78.42
2019-05-30T08:54:14.139Z,77.56
2019-05-30T08:55:13.632Z,78.03
2019-05-30T08:56:13.636Z,77.84
2019-05-30T08:57:13.624Z,78.23
2019-05-30T08:58:13.629Z,77.65
2019-05-30T08:59:13.636Z,77.26
2019-05-30T09:00:13.636Z,75.82
2019-05-30T09:01:13.632Z,75.82
2019-05-30T09:02:13.626Z,77.17
2019-05-30T09:03:13.631Z,77.94
2019-05-30T09:04:13.628Z,77.98
2019-05-30T09:05:13.637Z,77.50
2019-05-30T09:06:13.642Z,77.11
2019-05-30T09:07:13.624Z,77.40
2019-05-30T09:08:13.626Z,79.13
2019-05-30T09:09:13.633Z,77.92
2019-05-30T09:10:13.627Z,76.09
2019-05-30T09:11:13.634Z,74.74
2019-05-30T09:12:13.633Z,74.26
2019-05-30T09:13:14.532Z,75.32
2019-05-30T09:14:13.795Z,75.42
2019-05-30T09:15:13.632Z,75.13
2019-05-30T09:16:13.794Z,74.26
2019-05-30T09:17:13.650Z,74.01
2019-05-30T09:18:13.631Z,74.97
2019-05-30T09:19:13.687Z,74.30
2019-05-30T09:20:13.803Z,74.40
2019-05-30T09:21:13.639Z,74.40
2019-05-30T09:22:13.646Z,73.72
2019-05-30T09:23:13.641Z,72.66
2019-05-30T09:24:13.641Z,71.70
2019-05-30T09:25:13.642Z,71.79
2019-05-30T09:26:13.648Z,72.37
2019-05-30T09:27:13.647Z,73.24
2019-05-30T09:28:13.647Z,74.40
2019-05-30T09:29:13.765Z,73.53
2019-05-30T09:30:13.652Z,74.58
2019-05-30T09:31:13.660Z,73.05
2019-05-30T09:32:13.649Z,73.53
2019-05-30T09:33:13.681Z,73.05
2019-05-30T09:34:13.655Z,73.14
2019-05-30T09:35:13.664Z,72.43
2019-05-30T09:36:14.076Z,74.26
2019-05-30T09:37:13.657Z,73.58
2019-05-30T09:38:13.810Z,73.78
2019-05-30T09:39:13.864Z,75.32
2019-05-30T09:40:13.668Z,75.32
2019-05-30T09:41:13.673Z,74.74
2019-05-30T09:42:14.241Z,74.65
2019-05-30T09:43:13.671Z,75.86
2019-05-30T09:44:13.686Z,75.28
2019-05-30T09:45:15.654Z,75.09
2019-05-30T09:46:13.683Z,75.96
2019-05-30T09:47:13.679Z,76.34
2019-05-30T09:48:13.674Z,76.06
2019-05-30T09:49:13.667Z,75.57
2019-05-30T09:50:13.663Z,75.67
2019-05-30T09:51:13.670Z,75.48
2019-05-30T09:52:13.669Z,75.96
2019-05-30T09:53:13.674Z,76.92
2019-05-30T09:54:13.661Z,77.08
2019-05-30T09:55:13.674Z,76.78
2019-05-30T09:56:13.675Z,76.59
2019-05-30T09:57:13.688Z,76.98
2019-05-30T09:58:19.106Z,77.33
2019-05-30T09:59:13.678Z,78.03
2019-05-30T10:00:14.406Z,78.23
2019-05-30T10:01:13.966Z,78.03
2019-05-30T10:02:13.674Z,77.94
2019-05-30T10:03:13.680Z,77.94
2019-05-30T10:04:13.673Z,78.03
2019-05-30T10:05:13.674Z,77.94
2019-05-30T10:06:28.528Z,78.13
2019-05-30T10:07:13.675Z,77.94
2019-05-30T10:08:13.670Z,78.33
2019-05-30T10:09:13.672Z,78.90
2019-05-30T10:10:13.670Z,79.58
2019-05-30T10:11:16.097Z,79.77
2019-05-30T10:12:13.668Z,79.28
2019-05-30T10:13:13.669Z,78.61
2019-05-30T10:14:13.665Z,78.23
2019-05-30T10:15:13.675Z,78.23
2019-05-30T10:16:13.671Z,77.46
2019-05-30T10:17:13.691Z,77.26
2019-05-30T10:18:13.668Z,77.17
2019-05-30T10:19:13.686Z,76.88
2019-05-30T10:20:13.671Z,77.46
2019-05-30T10:21:13.663Z,78.13
2019-05-30T10:22:13.666Z,78.03
2019-05-30T10:23:13.666Z,78.52
2019-05-30T10:24:13.668Z,78.13
2019-05-30T10:25:13.660Z,78.33
2019-05-30T10:26:13.659Z,78.36
2019-05-30T10:27:13.667Z,78.42
2019-05-30T10:28:13.667Z,78.42
2019-05-30T10:29:13.666Z,77.94
2019-05-30T10:30:13.669Z,78.42
2019-05-30T10:31:13.660Z,78.23
2019-05-30T10:32:13.656Z,78.42
2019-05-30T10:33:13.665Z,78.42
2019-05-30T10:34:13.662Z,77.46
2019-05-30T10:35:13.659Z,78.23
2019-05-30T10:36:14.814Z,78.42
2019-05-30T10:37:13.655Z,79.10
2019-05-30T10:38:13.655Z,79.58
2019-05-30T10:39:13.656Z,80.06
2019-05-30T10:40:13.654Z,78.81
2019-05-30T10:41:13.658Z,79.10
2019-05-30T10:42:13.650Z,79.13
2019-05-30T10:43:13.654Z,80.48
2019-05-30T10:44:13.658Z,80.54
2019-05-30T10:45:13.652Z,79.58
2019-05-30T10:46:13.665Z,79.86
2019-05-30T10:47:13.656Z,80.15
2019-05-30T10:48:13.655Z,79.86
2019-05-30T10:49:13.655Z,80.35
2019-05-30T10:50:13.650Z,80.54
2019-05-30T10:51:13.649Z,79.86
2019-05-30T10:52:13.647Z,79.96
2019-05-30T10:53:13.647Z,79.00
2019-05-30T10:54:13.646Z,79.28
2019-05-30T10:55:13.648Z,79.67
2019-05-30T10:56:13.646Z,80.54
2019-05-30T10:57:13.644Z,81.02
2019-05-30T10:58:13.643Z,82.08
2019-05-30T10:59:13.645Z,81.12
2019-05-30T11:00:13.645Z,81.40
2019-05-30T11:01:13.649Z,80.98
2019-05-30T11:02:13.643Z,80.88
2019-05-30T11:03:13.638Z,81.37
2019-05-30T11:04:13.637Z,82.23
2019-05-30T11:05:13.638Z,82.90
2019-05-30T11:06:13.668Z,83.58
2019-05-30T11:07:13.637Z,83.39
2019-05-30T11:08:13.632Z,82.61
2019-05-30T11:09:13.637Z,83.00
2019-05-30T11:10:13.632Z,81.88
2019-05-30T11:11:14.491Z,81.79
2019-05-30T11:12:13.631Z,81.75
2019-05-30T11:13:13.658Z,81.79
2019-05-30T11:14:13.632Z,81.30
2019-05-30T11:15:14.495Z,81.21
2019-05-30T11:16:13.632Z,82.17
2019-05-30T11:17:13.626Z,81.88
2019-05-30T11:18:13.719Z,82.37
2019-05-30T11:19:13.625Z,82.27
2019-05-30T11:20:13.645Z,81.98
2019-05-30T11:21:13.624Z,82.08
2019-05-30T11:22:13.652Z,80.92
2019-05-30T11:23:13.628Z,80.73
2019-05-30T11:24:13.616Z,80.73
2019-05-30T11:25:13.620Z,81.40
2019-05-30T11:26:13.616Z,82.50
2019-05-30T11:27:13.616Z,83.18
2019-05-30T11:28:13.616Z,83.08
2019-05-30T11:29:13.615Z,83.37
2019-05-30T11:30:13.614Z,83.66
2019-05-30T11:31:16.549Z,84.43
2019-05-30T11:32:13.612Z,84.05
2019-05-30T11:33:13.625Z,83.75
2019-05-30T11:34:13.682Z,83.95
2019-05-30T11:35:14.441Z,82.60
2019-05-30T11:36:13.608Z,82.50
2019-05-30T11:37:18.700Z,82.93
2019-05-30T11:38:13.615Z,83.03
2019-05-30T11:39:16.381Z,82.83
2019-05-30T11:40:13.605Z,82.74
2019-05-30T11:41:13.607Z,81.39
2019-05-30T11:42:13.632Z,79.94
2019-05-30T11:43:15.386Z,80.23
2019-05-30T11:44:15.530Z,80.04
2019-05-30T11:45:14.297Z,79.46
2019-05-30T11:46:14.747Z,79.36
2019-05-30T11:47:13.605Z,79.56
2019-05-30T11:48:13.752Z,79.56
2019-05-30T11:49:14.464Z,79.75
2019-05-30T11:50:13.605Z,80.43
2019-05-30T11:51:13.847Z,79.46
2019-05-30T11:52:13.605Z,79.46
2019-05-30T11:53:13.607Z,79.85
2019-05-30T11:54:13.604Z,80.85
2019-05-30T11:55:13.640Z,80.62
2019-05-30T11:56:15.973Z,80.18
2019-05-30T11:57:13.603Z,79.94
2019-05-30T11:58:13.606Z,80.04
2019-05-30T11:59:14.888Z,79.66
2019-05-30T12:00:13.613Z,80.81
2019-05-30T12:01:15.351Z,80.71
2019-05-30T12:02:14.611Z,80.91
2019-05-30T12:03:13.811Z,81.10
2019-05-30T12:04:13.608Z,81.48
2019-05-30T12:05:14.720Z,81.68
2019-05-30T12:06:13.605Z,82.83
2019-05-30T12:07:13.612Z,83.41
2019-05-30T12:08:14.356Z,84.66
2019-05-30T12:09:14.663Z,83.80
2019-05-30T12:10:13.743Z,84.28
2019-05-30T12:11:13.619Z,84.66
2019-05-30T12:12:13.609Z,84.66
2019-05-30T12:13:13.613Z,84.76
2019-05-30T12:14:13.990Z,86.01
2019-05-30T12:15:13.613Z,85.24
2019-05-30T12:16:13.611Z,86.01
2019-05-30T12:17:13.605Z,85.82
2019-05-30T12:18:15.900Z,84.86
2019-05-30T12:19:13.611Z,84.56
2019-05-30T12:20:15.109Z,84.09
2019-05-30T12:21:13.601Z,83.31
2019-05-30T12:22:13.610Z,83.61
2019-05-30T12:23:13.607Z,83.51
2019-05-30T12:24:13.610Z,83.41
2019-05-30T12:25:13.608Z,84.18
2019-05-30T12:26:13.630Z,83.99
2019-05-30T12:27:13.613Z,84.91
2019-05-30T12:28:13.603Z,85.49
2019-05-30T12:29:13.606Z,85.78
2019-05-30T12:30:13.599Z,86.07
2019-05-30T12:31:13.597Z,86.26
2019-05-30T12:32:13.602Z,86.35
2019-05-30T12:33:13.608Z,87.60
2019-05-30T12:34:13.604Z,88.38
2019-05-30T12:35:14.427Z,89.24
2019-05-30T12:36:14.116Z,90.20
2019-05-30T12:37:15.199Z,89.53
2019-05-30T12:38:13.596Z,89.53
2019-05-30T12:39:13.612Z,90.11
2019-05-30T12:40:13.603Z,89.24
2019-05-30T12:41:13.599Z,89.92
2019-05-30T12:42:13.600Z,89.24
2019-05-30T12:43:14.099Z,88.23
2019-05-30T12:44:14.588Z,88.32
2019-05-30T12:45:13.606Z,88.51
2019-05-30T12:46:13.601Z,87.74
2019-05-30T12:47:13.596Z,89.19
2019-05-30T12:48:13.602Z,89.86
2019-05-30T12:49:13.590Z,89.58
2019-05-30T12:50:16.564Z,88.81
2019-05-30T12:51:13.598Z,89.09
2019-05-30T12:52:13.597Z,88.71